Knoxville, Tennessee
Current Conditions -  °F | °C
As of 2:53 PM on Wednesday 26 Nov 2014 (Local Time) from KTYS Reporting Station
Few Clouds Few Clouds  
Wind Chill: 51°   Ceiling: Unl
Heat Index: 51°   Visibility: 10mi
Dew Point: 22°   Wind: 12mph
Humidity: 32%   Direction: 240°WSW
Pressure: 30.01"   Gusts: 18mph
Location:  35.96°N, 83.92°W
Report Text: KTYS 261953Z 24010G16KT 210V270 10SM FEW048 FEW200 11/M06 A3001 RMK AO2 SLP164 T01061056
Loading
Personal Weather Stations






























Interactive Weather Map New forecast layout! Learn more

10-Day Weather Forecast

Advertisements
Track Severe Weather on mobile